Terminal Aerodrome Forecast
Issued by NWS Louisville, KY

Home | Current Version | Previous Version | Text Only | Print | Product List | Glossary On
Versions: 1 2 3 4 5 6 7 8 9 10 11 12 13 14 15 16 17 18
000
FTUS43 KLMK 282300
TAFBWG
TAF
KBWG 282331Z 2900/2924 26005KT P6SM FEW060
     FM290700 19004KT P6SM VCSH SCT040 BKN060
     FM291300 22012G18KT P6SM SCT060 SCT250
     FM291900 25013G19KT P6SM VCSH SCT040 SCT250=

USA.gov is the U.S. government's official web portal to all federal, state and local government web resources and services.